Time;durP1;ratioP1;P1;durP2;ratioP2;P2;SDS_P1;SDS_P2;PMS_P1;PMS_P2;Temp;Humidity;BMP_temperature;BMP_pressure;BME280_temperature;BME280_humidity;BME280_pressure;Samples;Min_cycle;Max_cycle;Signal;HPM_P1;HPM_P2
2022/05/04 00:00:46;;;;;;;3.77;3.47;;;8.50;99.90;8.90;96718.00;;;;5053028;28;20216;-88
2022/05/04 00:03:16;;;;;;;4.20;3.03;;;8.50;99.90;8.70;96722.00;;;;5053239;28;20204;-88
2022/05/04 00:05:46;;;;;;;3.60;3.30;;;8.40;99.90;8.00;96716.00;;;;5053288;28;20208;-86
2022/05/04 00:08:14;;;;;;;4.63;3.20;;;8.30;99.90;7.90;96720.00;;;;5053914;28;20196;-87
2022/05/04 00:10:43;;;;;;;3.20;2.90;;;8.10;99.90;8.00;96711.00;;;;5053598;28;20216;-86
2022/05/04 00:13:12;;;;;;;3.77;2.93;;;7.90;99.90;8.10;96709.00;;;;5053112;28;20204;-87
2022/05/04 00:15:41;;;;;;;3.87;3.43;;;7.80;99.90;8.20;96710.00;;;;5052624;28;20219;-88
2022/05/04 00:18:10;;;;;;;5.60;3.40;;;7.80;99.90;8.30;96709.00;;;;5050916;28;20201;-86
2022/05/04 00:20:38;;;;;;;3.37;3.00;;;7.80;99.90;8.20;96703.00;;;;5044527;28;20213;-87
2022/05/04 00:23:09;;;;;;;3.50;3.20;;;7.80;99.90;8.20;96708.00;;;;5053255;28;20197;-87
2022/05/04 00:25:38;;;;;;;3.33;2.97;;;7.80;99.90;7.40;96699.00;;;;5053035;28;20196;-85
2022/05/04 00:28:06;;;;;;;5.07;3.23;;;7.60;99.90;7.30;96697.00;;;;5052600;28;20242;-85
2022/05/04 00:30:36;;;;;;;3.57;2.97;;;7.50;99.90;7.50;96701.00;;;;5052936;28;20299;-88
2022/05/04 00:33:04;;;;;;;5.30;3.67;;;7.50;99.90;7.30;96707.00;;;;5059856;28;20212;-87
2022/05/04 00:35:34;;;;;;;6.07;3.80;;;7.40;99.90;7.60;96706.00;;;;5058838;28;20200;-88
2022/05/04 00:38:03;;;;;;;3.83;3.53;;;7.30;99.90;7.40;96703.00;;;;5053861;28;20200;-88
2022/05/04 00:40:33;;;;;;;3.93;3.53;;;7.30;99.90;7.50;96703.00;;;;5055390;28;20298;-85
2022/05/04 00:43:02;;;;;;;5.10;3.47;;;7.30;99.90;7.90;96712.00;;;;5055059;28;20288;-88
2022/05/04 00:45:31;;;;;;;3.87;3.57;;;7.40;99.90;8.10;96707.00;;;;5052634;28;20201;-88
2022/05/04 00:47:59;;;;;;;4.37;3.97;;;7.50;99.90;8.20;96707.00;;;;5052929;28;20462;-86
2022/05/04 00:50:28;;;;;;;3.80;3.37;;;7.50;99.90;7.70;96713.00;;;;5053742;28;20221;-83
2022/05/04 00:52:57;;;;;;;3.30;3.00;;;7.60;99.90;7.60;96707.00;;;;5054781;28;20246;-86
2022/05/04 00:55:26;;;;;;;3.63;3.33;;;7.50;99.90;7.80;96704.00;;;;5053315;28;20202;-87
2022/05/04 01:00:45;;;;;;;4.50;2.77;;;7.50;99.90;7.90;96715.00;;;;5054292;28;20212;-85
2022/05/04 01:03:14;;;;;;;4.27;3.87;;;7.50;99.90;8.20;96706.00;;;;5035481;28;20209;-85
2022/05/04 01:05:43;;;;;;;4.33;3.93;;;7.60;99.90;8.10;96706.00;;;;5052683;28;20204;-84
2022/05/04 01:08:12;;;;;;;7.07;3.73;;;7.60;99.90;7.70;96704.00;;;;5053927;28;20208;-86
2022/05/04 01:10:40;;;;;;;3.93;3.63;;;7.50;99.90;7.70;96712.00;;;;5053766;28;20216;-86
2022/05/04 01:13:11;;;;;;;4.73;3.87;;;7.50;99.90;7.30;96706.00;;;;5056980;28;20204;-84
2022/05/04 01:15:39;;;;;;;6.50;3.87;;;7.40;99.90;7.50;96706.00;;;;5062683;28;20687;-86
2022/05/04 01:18:08;;;;;;;5.13;4.07;;;7.30;99.90;7.40;96698.00;;;;5054108;28;20295;-89
2022/05/04 01:20:37;;;;;;;3.47;3.17;;;7.20;99.90;7.40;96706.00;;;;5047539;28;20255;-88
2022/05/04 01:23:07;;;;;;;3.53;3.23;;;7.20;99.90;7.50;96715.00;;;;5057831;28;20197;-88
2022/05/04 01:25:36;;;;;;;4.63;4.20;;;7.20;99.90;7.30;96705.00;;;;5059143;28;20227;-86
2022/05/04 01:28:05;;;;;;;3.97;3.57;;;7.10;99.90;7.00;96707.00;;;;5056196;28;20196;-87
2022/05/04 01:30:35;;;;;;;8.40;3.33;;;7.00;99.90;7.20;96702.00;;;;5057512;28;20216;-89
2022/05/04 01:33:04;;;;;;;4.47;3.63;;;7.00;99.90;6.80;96717.00;;;;5063674;28;20192;-87
2022/05/04 01:35:33;;;;;;;3.70;3.27;;;6.90;99.90;6.70;96706.00;;;;5071323;28;20226;-88
2022/05/04 01:38:01;;;;;;;4.03;3.63;;;6.80;99.90;6.60;96713.00;;;;5056955;28;20224;-87
2022/05/04 01:40:32;;;;;;;3.97;3.60;;;6.70;99.90;6.70;96706.00;;;;5057196;28;20220;-87
2022/05/04 01:43:00;;;;;;;4.70;3.97;;;6.70;99.90;6.90;96706.00;;;;5057807;28;20226;-88
2022/05/04 01:45:29;;;;;;;4.97;3.93;;;6.70;99.90;6.90;96713.00;;;;5056399;28;20359;-87
2022/05/04 01:47:57;;;;;;;15.77;3.90;;;6.70;99.90;7.20;96709.00;;;;5055621;28;20197;-88
2022/05/04 01:50:26;;;;;;;4.10;3.70;;;6.70;99.90;7.20;96719.00;;;;5056122;28;20362;-87
2022/05/04 01:52:55;;;;;;;4.50;4.10;;;6.80;99.90;6.90;96699.00;;;;5057240;28;20204;-86
2022/05/04 01:55:24;;;;;;;3.37;3.07;;;6.80;99.90;6.90;96702.00;;;;5056025;28;20224;-85
2022/05/04 01:57:54;;;;;;;4.23;3.93;;;6.80;99.90;7.30;96708.00;;;;5056234;28;20228;-82
2022/05/04 02:00:23;;;;;;;3.87;3.57;;;6.80;99.90;7.40;96704.00;;;;5056158;28;20220;-86
2022/05/04 02:02:52;;;;;;;4.13;3.60;;;6.90;99.90;7.50;96708.00;;;;5055074;28;20215;-87
2022/05/04 02:05:22;;;;;;;4.50;4.10;;;7.00;99.90;7.60;96702.00;;;;5054338;28;20279;-87
2022/05/04 02:07:51;;;;;;;5.17;3.20;;;7.10;99.90;7.70;96705.00;;;;5054887;28;20254;-84
2022/05/04 02:10:19;;;;;;;4.27;3.67;;;7.20;99.90;7.70;96711.00;;;;5054127;28;20223;-87
2022/05/04 02:12:48;;;;;;;5.87;3.37;;;7.20;99.90;7.40;96704.00;;;;5054319;28;20200;-87
2022/05/04 02:15:21;;;;;;;3.20;3.00;;;7.20;99.90;7.20;96701.00;;;;5054118;28;20208;-85
2022/05/04 02:17:49;;;;;;;4.53;3.57;;;7.10;99.90;7.20;96697.00;;;;5053730;28;20216;-87
2022/05/04 02:20:18;;;;;;;4.17;3.33;;;7.00;99.90;7.10;96714.00;;;;5043483;28;20312;-89
2022/05/04 02:22:47;;;;;;;3.17;2.70;;;6.90;99.90;6.90;96705.00;;;;5054958;28;20208;-85
2022/05/04 02:25:15;;;;;;;4.10;3.70;;;6.80;99.90;7.20;96707.00;;;;5055047;28;20199;-85
2022/05/04 02:27:44;;;;;;;4.23;3.77;;;6.80;99.90;7.50;96715.00;;;;5053786;28;20201;-84
2022/05/04 02:30:13;;;;;;;5.80;4.17;;;6.90;99.90;7.50;96714.00;;;;5053834;28;20303;-87
2022/05/04 02:32:43;;;;;;;4.07;3.67;;;6.90;99.90;7.70;96721.00;;;;5056716;28;20201;-85
2022/05/04 02:37:59;;;;;;;4.23;3.83;;;7.10;99.90;7.50;96708.00;;;;5040263;28;20265;-84
2022/05/04 02:40:28;;;;;;;4.77;4.27;;;7.10;99.90;7.30;96710.00;;;;5054433;28;20227;-85
2022/05/04 02:42:57;;;;;;;4.47;3.60;;;7.10;99.90;6.80;96705.00;;;;5054611;28;20215;-87
2022/05/04 02:45:25;;;;;;;2.70;2.50;;;6.90;99.90;6.70;96704.00;;;;5055480;28;20204;-84
2022/05/04 02:47:55;;;;;;;3.80;3.50;;;6.80;99.90;6.80;96705.00;;;;5054025;28;20203;-86
2022/05/04 02:50:24;;;;;;;3.97;3.57;;;6.70;99.90;6.50;96701.00;;;;5053717;28;20303;-87
2022/05/04 02:52:53;;;;;;;3.73;3.43;;;6.60;99.90;6.00;96701.00;;;;5054297;28;20204;-86
2022/05/04 02:55:21;;;;;;;3.50;3.20;;;6.50;99.90;5.90;96716.00;;;;5051882;28;20283;-86
2022/05/04 02:57:50;;;;;;;4.83;3.90;;;6.30;99.90;6.00;96713.00;;;;5051970;28;20216;-84
2022/05/04 03:00:19;;;;;;;4.07;3.77;;;6.20;99.90;6.50;96721.00;;;;5051780;28;20235;-87
2022/05/04 03:02:48;;;;;;;4.20;3.80;;;6.20;99.90;6.50;96724.00;;;;5051083;28;20211;-84
2022/05/04 03:05:19;;;;;;;7.13;4.23;;;6.20;99.90;6.50;96733.00;;;;5061050;28;20197;-86
2022/05/04 03:07:47;;;;;;;3.77;3.40;;;6.20;99.90;6.30;96728.00;;;;5059788;28;20220;-85
2022/05/04 03:10:17;;;;;;;5.33;3.93;;;6.20;99.90;6.40;96724.00;;;;5053431;28;20220;-89
2022/05/04 03:12:45;;;;;;;4.80;4.30;;;6.20;99.90;6.40;96731.00;;;;5054060;28;20221;-86
2022/05/04 03:15:14;;;;;;;4.37;3.93;;;6.20;99.90;6.20;96725.00;;;;5053919;28;20272;-87
2022/05/04 03:17:43;;;;;;;4.43;4.00;;;6.20;99.90;6.50;96728.00;;;;5053626;28;20216;-85
2022/05/04 03:20:13;;;;;;;5.37;4.87;;;6.20;99.90;6.50;96744.00;;;;5053784;28;20217;-84
2022/05/04 03:22:43;;;;;;;4.37;3.87;;;6.20;99.90;6.40;96730.00;;;;5054364;28;20627;-85
2022/05/04 03:25:12;;;;;;;4.07;3.67;;;6.20;99.90;6.30;96736.00;;;;5053656;28;20204;-84
2022/05/04 03:27:41;;;;;;;3.73;3.43;;;6.20;99.90;6.20;96728.00;;;;5052315;28;20224;-88
2022/05/04 03:30:11;;;;;;;4.67;4.27;;;6.10;99.90;6.20;96742.00;;;;5051875;28;20220;-88
2022/05/04 03:32:40;;;;;;;5.30;4.00;;;6.10;99.90;6.10;96740.00;;;;5054394;28;20575;-85
2022/05/04 03:35:09;;;;;;;8.63;4.13;;;6.10;99.90;6.60;96740.00;;;;5068105;28;20282;-84
2022/05/04 03:37:38;;;;;;;4.90;4.50;;;6.10;99.90;6.50;96746.00;;;;5063299;28;20213;-84
2022/05/04 03:40:10;;;;;;;5.90;4.80;;;6.20;99.90;6.50;96739.00;;;;5070471;28;20220;-86
2022/05/04 03:42:39;;;;;;;5.37;4.87;;;6.20;99.90;6.40;96735.00;;;;5068820;28;20201;-85
2022/05/04 03:45:09;;;;;;;4.30;3.90;;;6.30;99.90;6.10;96747.00;;;;5055659;28;20196;-88
2022/05/04 03:47:38;;;;;;;4.33;3.93;;;6.10;99.90;6.00;96743.00;;;;5054284;28;20669;-87
2022/05/04 03:50:08;;;;;;;3.97;3.67;;;6.10;99.90;5.90;96741.00;;;;5054406;28;20216;-85
2022/05/04 03:52:36;;;;;;;3.80;2.87;;;6.00;99.90;6.00;96744.00;;;;5054518;28;20752;-88
2022/05/04 03:55:08;;;;;;;4.67;4.27;;;6.00;99.90;6.10;96747.00;;;;5057963;28;20185;-83
2022/05/04 03:57:36;;;;;;;5.27;4.07;;;6.00;99.90;6.30;96750.00;;;;5068971;28;20211;-87
2022/05/04 04:00:09;;;;;;;8.10;4.63;;;6.10;99.90;6.60;96748.00;;;;5056788;28;20228;-85
2022/05/04 04:02:38;;;;;;;4.47;4.07;;;6.30;99.90;6.80;96753.00;;;;5054133;28;20600;-87
2022/05/04 04:05:09;;;;;;;5.83;4.37;;;6.40;99.90;6.60;96750.00;;;;5051735;28;20277;-85
2022/05/04 04:07:38;;;;;;;5.63;4.83;;;6.40;99.90;6.70;96755.00;;;;5050457;28;20193;-86
2022/05/04 04:10:10;;;;;;;5.80;5.00;;;6.40;99.90;6.80;96752.00;;;;5048869;28;20290;-87
2022/05/04 04:12:38;;;;;;;4.73;4.20;;;6.50;99.90;6.50;96751.00;;;;5050238;28;20271;-89
2022/05/04 04:15:08;;;;;;;3.90;3.23;;;6.50;99.90;6.40;96761.00;;;;5045968;28;20239;-84
2022/05/04 04:17:37;;;;;;;5.17;4.07;;;6.40;99.90;6.40;96750.00;;;;5052629;28;20670;-87
2022/05/04 04:22:53;;;;;;;4.67;4.27;;;6.30;99.90;6.80;96764.00;;;;5021914;28;20219;-86
2022/05/04 04:25:23;;;;;;;4.87;4.10;;;6.40;99.90;7.10;96760.00;;;;5057252;28;20199;-86
2022/05/04 04:27:51;;;;;;;5.30;4.53;;;6.50;99.90;7.00;96754.00;;;;5051226;28;20192;-87
2022/05/04 04:30:20;;;;;;;5.23;4.63;;;6.50;99.90;6.50;96766.00;;;;5051819;28;20216;-86
2022/05/04 04:32:48;;;;;;;10.97;4.97;;;6.50;99.90;6.60;96752.00;;;;5051052;28;20231;-86
2022/05/04 04:35:17;;;;;;;4.87;4.37;;;6.50;99.90;6.50;96760.00;;;;5050668;28;20299;-85
2022/05/04 04:37:46;;;;;;;4.30;3.90;;;6.50;99.90;6.80;96762.00;;;;5047698;28;20192;-83
2022/05/04 04:40:15;;;;;;;5.17;4.13;;;6.50;99.90;6.80;96761.00;;;;5052985;28;20229;-85
2022/05/04 04:42:44;;;;;;;5.57;4.07;;;6.50;99.90;6.80;96758.00;;;;5051377;28;20293;-87
2022/05/04 04:45:13;;;;;;;4.37;3.97;;;6.50;99.90;6.90;96759.00;;;;5043037;28;20240;-85
2022/05/04 04:47:42;;;;;;;6.03;4.53;;;6.60;99.90;7.10;96761.00;;;;5038742;28;20210;-85
2022/05/04 04:50:11;;;;;;;5.33;4.60;;;6.70;99.90;6.70;96755.00;;;;5042747;28;20225;-87
2022/05/04 04:52:39;;;;;;;4.43;4.03;;;6.70;99.90;6.80;96763.00;;;;5048262;28;20196;-87
2022/05/04 04:55:09;;;;;;;9.00;5.27;;;6.60;99.90;6.30;96759.00;;;;5051006;28;20219;-82
2022/05/04 04:57:38;;;;;;;4.87;4.40;;;7.30;99.90;6.80;96760.00;;;;5072979;28;20204;-85
2022/05/04 05:00:09;;;;;;;5.87;5.27;;;6.60;99.90;7.00;96765.00;;;;5056772;28;20234;-87
2022/05/04 05:02:38;;;;;;;4.40;3.83;;;6.60;99.90;7.10;96752.00;;;;5052489;28;20219;-87
2022/05/04 05:05:08;;;;;;;7.00;4.93;;;6.70;99.90;6.80;96752.00;;;;5054781;28;20201;-85
2022/05/04 05:07:38;;;;;;;5.37;3.77;;;6.70;99.90;6.50;96752.00;;;;5052349;28;20235;-85
2022/05/04 05:10:07;;;;;;;8.13;4.90;;;6.70;99.90;6.80;96759.00;;;;5054821;28;20228;-86
2022/05/04 05:12:36;;;;;;;7.03;5.50;;;6.70;99.90;7.00;96746.00;;;;5064340;28;20207;-87
2022/05/04 05:17:53;;;;;;;11.67;8.70;;;6.90;99.90;7.80;96756.00;;;;5055013;28;20258;-85
2022/05/04 05:20:22;;;;;;;8.73;5.07;;;7.20;99.90;7.90;96757.00;;;;5042832;28;20225;-88
2022/05/04 05:22:51;;;;;;;5.17;4.67;;;7.40;99.90;8.30;96756.00;;;;5049320;28;20200;-86
2022/05/04 05:25:19;;;;;;;5.83;5.13;;;7.60;99.90;8.50;96758.00;;;;5051880;28;20199;-89
2022/05/04 05:27:48;;;;;;;4.77;4.20;;;8.40;99.90;8.60;96755.00;;;;5054425;28;20191;-87
2022/05/04 05:30:18;;;;;;;7.30;5.03;;;7.90;99.90;8.70;96761.00;;;;5061293;28;20304;-89
2022/05/04 05:32:47;;;;;;;8.47;4.37;;;8.10;99.90;8.60;96774.00;;;;5058810;28;20220;-88
2022/05/04 05:35:16;;;;;;;5.67;4.97;;;8.10;99.90;8.80;96773.00;;;;5049499;28;20205;-87
2022/05/04 05:37:45;;;;;;;11.17;5.80;;;8.20;99.90;9.00;96762.00;;;;5048638;28;20280;-86
2022/05/04 05:40:16;;;;;;;5.20;4.73;;;8.30;99.90;9.40;96763.00;;;;5047467;28;20370;-87
2022/05/04 05:42:45;;;;;;;6.40;5.80;;;8.50;99.90;9.80;96775.00;;;;5053850;28;20193;-88
2022/05/04 05:45:14;;;;;;;5.43;4.93;;;8.70;99.90;10.10;96769.00;;;;5055596;28;20205;-85
2022/05/04 05:47:44;;;;;;;8.80;5.33;;;8.90;99.90;10.10;96768.00;;;;5053794;28;20292;-86
2022/05/04 05:50:12;;;;;;;5.97;4.73;;;9.10;99.90;10.30;96770.00;;;;5097192;22;20245;-73
2022/05/04 05:52:41;;;;;;;6.10;5.50;;;9.30;99.90;10.60;96777.00;;;;5084711;28;20281;-73
2022/05/04 05:55:10;;;;;;;6.70;5.43;;;9.50;99.90;11.00;96773.00;;;;5076301;28;20270;-72
2022/05/04 05:57:39;;;;;;;11.03;5.97;;;9.70;99.90;11.30;96775.00;;;;5090030;28;20195;-73
2022/05/04 06:00:09;;;;;;;5.93;5.23;;;10.00;99.90;11.70;96783.00;;;;5086843;28;20226;-73
2022/05/04 06:02:37;;;;;;;7.40;6.10;;;10.20;99.90;11.90;96785.00;;;;5085035;28;20216;-73
2022/05/04 06:05:08;;;;;;;5.83;5.27;;;10.50;99.90;12.10;96788.00;;;;5081476;28;20206;-72
2022/05/04 06:07:38;;;;;;;6.90;4.90;;;10.70;99.90;11.70;96782.00;;;;5081976;28;20547;-72
2022/05/04 06:10:09;;;;;;;5.67;5.17;;;10.90;99.90;12.00;96776.00;;;;5109618;28;20203;-73
2022/05/04 06:12:38;;;;;;;6.20;4.70;;;11.00;99.90;12.10;96786.00;;;;5112381;28;20306;-72
2022/05/04 06:15:09;;;;;;;4.97;4.47;;;11.10;99.90;12.40;96784.00;;;;5112754;28;20194;-73
2022/05/04 06:17:38;;;;;;;8.90;5.60;;;11.30;99.90;12.70;96791.00;;;;5112250;28;20563;-73
2022/05/04 06:20:09;;;;;;;7.33;5.87;;;11.80;99.90;12.80;96798.00;;;;5093532;28;20247;-73
2022/05/04 06:22:38;;;;;;;6.13;5.53;;;11.60;99.90;12.60;96782.00;;;;5107199;28;20229;-72
2022/05/04 06:25:07;;;;;;;8.83;5.53;;;11.70;99.90;13.00;96785.00;;;;5112080;28;20198;-73
2022/05/04 06:27:36;;;;;;;5.27;4.33;;;11.90;99.90;13.10;96783.00;;;;5111745;28;20613;-73
2022/05/04 06:35:40;;;;;;;7.73;4.73;;;12.40;99.90;13.80;96780.00;;;;5104974;28;20199;-72
2022/05/04 06:38:11;;;;;;;7.73;4.50;;;12.60;99.90;14.20;96792.00;;;;5100623;28;20194;-73
2022/05/04 06:40:40;;;;;;;6.97;4.70;;;12.80;99.90;14.50;96797.00;;;;5111366;28;20301;-73
2022/05/04 06:43:09;;;;;;;6.13;4.27;;;13.00;99.90;14.70;96790.00;;;;5111779;28;20205;-73
2022/05/04 06:45:37;;;;;;;6.63;4.40;;;13.20;99.90;14.90;96788.00;;;;5111677;28;20195;-72
2022/05/04 06:48:07;;;;;;;5.67;4.27;;;13.40;99.90;15.00;96784.00;;;;5111142;28;20282;-74
2022/05/04 06:50:35;;;;;;;6.07;4.37;;;13.60;99.90;15.40;96785.00;;;;5110640;28;20198;-74
2022/05/04 06:53:06;;;;;;;6.10;4.40;;;13.90;99.90;15.40;96798.00;;;;5110391;28;20243;-71
2022/05/04 06:55:34;;;;;;;4.07;3.40;;;14.00;99.90;15.90;96793.00;;;;5111450;28;20202;-71
2022/05/04 06:58:03;;;;;;;7.50;4.63;;;14.30;99.90;16.10;96797.00;;;;5087573;28;20697;-71
2022/05/04 07:00:32;;;;;;;4.93;4.43;;;14.50;99.90;16.30;96801.00;;;;5083403;28;20223;-71
2022/05/04 07:03:00;;;;;;;4.20;3.80;;;14.70;99.90;16.60;96788.00;;;;5083293;28;20206;-72
2022/05/04 07:05:29;;;;;;;4.33;3.93;;;14.90;99.90;16.60;96790.00;;;;5096876;28;20218;-72
2022/05/04 07:07:58;;;;;;;10.10;3.93;;;15.20;99.90;16.80;96792.00;;;;5080341;28;20199;-72
2022/05/04 07:10:27;;;;;;;6.70;4.67;;;15.40;99.90;16.90;96797.00;;;;5111028;28;20279;-74
2022/05/04 07:12:56;;;;;;;5.40;3.67;;;15.50;99.90;17.00;96801.00;;;;5110465;28;20201;-74
2022/05/04 07:15:25;;;;;;;9.23;4.00;;;15.70;99.90;16.70;96797.00;;;;5110774;28;20190;-71
2022/05/04 07:17:53;;;;;;;3.87;3.37;;;15.70;99.90;16.70;96796.00;;;;5110518;28;20203;-72
2022/05/04 07:20:22;;;;;;;4.93;3.87;;;15.70;99.90;17.00;96795.00;;;;5088713;28;20301;-72
2022/05/04 07:22:51;;;;;;;4.73;3.83;;;15.80;99.90;17.10;96800.00;;;;5110900;28;20256;-72
2022/05/04 07:25:19;;;;;;;3.77;3.37;;;15.80;99.90;17.30;96792.00;;;;5098903;28;20266;-72
2022/05/04 07:27:49;;;;;;;7.03;3.87;;;15.90;99.90;17.30;96793.00;;;;5090724;28;20187;-72
2022/05/04 07:30:18;;;;;;;5.40;3.60;;;16.00;99.90;17.50;96790.00;;;;5079518;28;20211;-73
2022/05/04 07:32:46;;;;;;;4.10;3.30;;;16.10;99.90;17.70;96798.00;;;;5088417;28;20225;-73
2022/05/04 07:35:17;;;;;;;6.43;4.17;;;16.10;99.90;17.60;96798.00;;;;5102056;28;20198;-73
2022/05/04 07:37:46;;;;;;;5.67;3.27;;;16.20;99.90;17.80;96794.00;;;;5096392;28;20195;-73
2022/05/04 07:43:01;;;;;;;5.57;3.90;;;16.50;99.90;18.30;96795.00;;;;5110742;28;20226;-72
2022/05/04 07:45:30;;;;;;;6.97;4.13;;;16.60;99.90;18.30;96795.00;;;;5110439;28;20209;-72
2022/05/04 07:48:00;;;;;;;5.50;3.97;;;16.70;99.90;18.40;96805.00;;;;5110001;28;20206;-73
2022/05/04 07:50:29;;;;;;;3.70;3.40;;;16.80;99.90;18.20;96796.00;;;;5110130;28;20210;-72
2022/05/04 07:52:57;;;;;;;5.70;3.53;;;16.90;99.90;18.70;96796.00;;;;5109827;28;20190;-72
2022/05/04 07:55:26;;;;;;;5.03;3.40;;;17.00;99.90;18.90;96795.00;;;;5110245;28;20199;-73
2022/05/04 07:57:55;;;;;;;4.70;3.93;;;17.20;99.90;19.10;96811.00;;;;5110139;28;20240;-72
2022/05/04 08:05:58;;;;;;;4.37;3.33;;;17.80;99.90;19.90;96796.00;;;;5092162;28;20270;-72
2022/05/04 08:08:27;;;;;;;3.17;2.87;;;18.10;99.90;20.20;96805.00;;;;5084286;28;20190;-72
2022/05/04 08:10:58;;;;;;;5.90;3.90;;;18.30;99.90;20.40;96805.00;;;;5110207;28;20214;-73
2022/05/04 08:13:26;;;;;;;4.37;2.77;;;18.50;99.90;20.50;96799.00;;;;5110208;28;20202;-73
2022/05/04 08:15:56;;;;;;;6.00;3.20;;;18.70;99.90;20.50;96797.00;;;;5110286;28;20195;-73
2022/05/04 08:18:25;;;;;;;3.77;3.03;;;18.80;99.90;20.60;96802.00;;;;5101304;28;20256;-73
2022/05/04 08:20:53;;;;;;;5.83;3.27;;;18.90;99.90;20.70;96798.00;;;;5081968;28;20234;-73
2022/05/04 08:23:22;;;;;;;4.60;3.10;;;19.00;99.90;20.80;96791.00;;;;5083708;28;20270;-73
2022/05/04 08:25:50;;;;;;;3.40;3.10;;;19.20;99.90;20.70;96792.00;;;;5089505;28;20188;-72
2022/05/04 08:28:19;;;;;;;3.30;3.00;;;19.20;99.90;21.10;96801.00;;;;5096101;28;20198;-73
2022/05/04 08:30:48;;;;;;;3.63;3.10;;;19.30;99.90;21.00;96807.00;;;;5093351;28;20297;-73
2022/05/04 08:33:18;;;;;;;3.43;3.03;;;19.40;99.90;21.20;96808.00;;;;5103955;28;20269;-73
2022/05/04 08:35:47;;;;;;;5.00;2.47;;;19.50;99.90;21.10;96800.00;;;;5093335;28;20202;-73
2022/05/04 08:38:16;;;;;;;6.10;2.67;;;19.50;99.70;21.20;96814.00;;;;5088797;28;20227;-73
2022/05/04 08:40:45;;;;;;;2.33;2.10;;;19.60;99.30;20.60;96796.00;;;;5089794;28;20231;-72
2022/05/04 08:43:13;;;;;;;3.37;2.83;;;19.60;94.80;20.70;96792.00;;;;5086938;28;20203;-73
2022/05/04 08:45:43;;;;;;;4.23;2.70;;;19.60;93.60;20.60;96790.00;;;;5089208;28;20261;-73
2022/05/04 08:48:12;;;;;;;2.70;2.50;;;19.50;93.60;21.30;96801.00;;;;5093108;28;20280;-72
2022/05/04 08:50:42;;;;;;;2.60;2.40;;;19.60;94.40;20.70;96797.00;;;;5092200;28;20227;-73
2022/05/04 08:53:13;;;;;;;2.77;2.30;;;19.60;92.30;21.00;96801.00;;;;5089592;28;20278;-73
2022/05/04 08:55:42;;;;;;;2.77;2.37;;;19.60;93.10;21.40;96791.00;;;;5080133;28;20194;-73
2022/05/04 08:58:12;;;;;;;2.57;2.37;;;19.70;92.90;21.40;96805.00;;;;5092875;28;20195;-72
2022/05/04 09:00:40;;;;;;;2.77;2.50;;;19.80;90.40;21.70;96796.00;;;;5091975;28;20242;-72
2022/05/04 09:03:09;;;;;;;3.23;2.53;;;19.90;90.70;21.50;96798.00;;;;5091207;28;20214;-72
2022/05/04 09:05:48;;;;;;;3.30;3.00;;;20.10;85.40;22.20;96786.00;;;;5093707;28;20198;-73
2022/05/04 09:08:25;;;;;;;2.70;2.30;;;20.30;88.50;22.40;96788.00;;;;5099928;28;20198;-73
2022/05/04 09:10:54;;;;;;;2.50;2.30;;;20.50;87.30;22.70;96784.00;;;;5098042;28;20250;-72
2022/05/04 09:13:22;;;;;;;2.60;2.40;;;20.70;85.90;22.50;96788.00;;;;5094571;28;20190;-73
2022/05/04 09:15:51;;;;;;;2.10;2.00;;;20.90;81.60;22.30;96800.00;;;;5092655;28;20194;-73
2022/05/04 09:18:21;;;;;;;2.90;2.27;;;20.90;80.20;22.50;96800.00;;;;5088827;28;20226;-72
2022/05/04 09:20:55;;;;;;;2.10;1.67;;;21.00;80.00;22.40;96789.00;;;;5097921;28;20222;-74
2022/05/04 09:23:28;;;;;;;3.90;2.10;;;21.00;77.60;22.00;96791.00;;;;5107484;28;20285;-73
2022/05/04 09:25:58;;;;;;;2.63;2.13;;;21.00;75.20;23.00;96772.00;;;;5092217;28;20199;-72
2022/05/04 09:28:29;;;;;;;2.70;1.93;;;21.10;74.30;23.40;96767.00;;;;5094702;28;20195;-72
2022/05/04 09:31:00;;;;;;;3.43;2.27;;;21.30;79.30;23.10;96763.00;;;;5092530;28;20223;-73
2022/05/04 09:33:32;;;;;;;2.40;2.20;;;21.50;73.10;23.20;96768.00;;;;5104104;28;20215;-73
2022/05/04 09:36:04;;;;;;;2.80;2.47;;;21.70;71.40;23.60;96768.00;;;;5093466;28;20218;-73
2022/05/04 09:46:57;;;;;;;2.63;2.23;;;22.70;69.90;25.30;96774.00;;;;5084612;28;20221;-73
2022/05/04 09:49:30;;;;;;;2.53;2.20;;;23.00;69.50;25.30;96764.00;;;;5081354;28;20205;-72
2022/05/04 09:52:05;;;;;;;2.57;2.37;;;23.20;67.60;25.80;96762.00;;;;5104404;28;20222;-72
2022/05/04 09:54:33;;;;;;;2.93;2.47;;;23.50;67.30;25.20;96754.00;;;;5094295;28;20198;-72
2022/05/04 09:57:04;;;;;;;6.07;2.67;;;23.70;65.40;25.50;96752.00;;;;5091879;28;20199;-73
2022/05/04 09:59:36;;;;;;;2.87;2.60;;;23.70;65.00;25.70;96742.00;;;;5098346;28;20206;-73
2022/05/04 10:02:07;;;;;;;3.43;2.13;;;23.90;63.70;26.50;96745.00;;;;5092075;28;20402;-73
2022/05/04 10:04:37;;;;;;;4.37;2.93;;;24.20;65.10;26.90;96733.00;;;;5091244;28;20199;-73
2022/05/04 10:07:11;;;;;;;4.13;2.50;;;24.40;64.40;26.80;96735.00;;;;5086337;28;20211;-73
2022/05/04 10:09:41;;;;;;;3.57;2.37;;;24.70;61.80;26.80;96729.00;;;;5091683;28;20220;-73
2022/05/04 10:12:12;;;;;;;4.00;2.40;;;24.90;60.30;26.70;96751.00;;;;5091546;28;20226;-73
2022/05/04 10:14:43;;;;;;;4.10;2.43;;;24.90;61.30;26.00;96746.00;;;;5091700;28;20197;-72
2022/05/04 10:17:15;;;;;;;2.83;2.60;;;24.80;56.00;26.00;96743.00;;;;5091291;28;20232;-72
2022/05/04 10:19:48;;;;;;;3.57;2.37;;;24.60;57.90;26.00;96726.00;;;;5086228;28;20196;-72
2022/05/04 10:22:26;;;;;;;5.07;2.37;;;24.60;59.40;25.00;96723.00;;;;5091252;28;20222;-71
2022/05/04 10:24:56;;;;;;;3.67;2.57;;;24.20;57.60;25.10;96713.00;;;;5091692;28;20196;-71
2022/05/04 10:27:29;;;;;;;3.80;2.47;;;24.10;56.90;26.00;96714.00;;;;5091039;28;20241;-71
2022/05/04 10:32:51;;;;;;;2.73;2.13;;;24.50;58.40;27.20;96695.00;;;;5082896;28;20197;-71
2022/05/04 10:35:23;;;;;;;3.20;2.40;;;24.80;58.10;26.20;96705.00;;;;5092148;28;20324;-71
2022/05/04 10:38:03;;;;;;;2.83;2.20;;;24.90;56.20;27.60;96669.00;;;;5091088;28;20200;-71
2022/05/04 10:40:34;;;;;;;3.57;2.30;;;25.20;56.90;28.30;96700.00;;;;5090922;28;20253;-71
2022/05/04 10:43:05;;;;;;;2.97;2.30;;;25.60;58.70;27.70;96675.00;;;;5091146;28;20222;-71
2022/05/04 10:45:36;;;;;;;3.30;2.50;;;25.70;56.60;25.20;96665.00;;;;5093978;28;20201;-71
2022/05/04 10:48:26;;;;;;;2.77;2.17;;;25.20;54.60;24.50;96698.00;;;;5090513;28;20273;-72
2022/05/04 10:50:58;;;;;;;2.40;2.20;;;24.70;53.60;24.80;96699.00;;;;5090724;28;20615;-72
2022/05/04 10:53:44;;;;;;;3.03;2.80;;;24.20;54.90;24.40;96699.00;;;;5092092;28;20199;-71
2022/05/04 10:56:16;;;;;;;5.43;3.27;;;23.80;55.70;24.70;96706.00;;;;5090832;28;20200;-72
2022/05/04 10:58:56;;;;;;;5.87;4.03;;;23.60;57.20;24.30;96709.00;;;;5090301;28;20195;-71
2022/05/04 11:01:28;;;;;;;5.40;3.53;;;23.30;57.40;23.80;96704.00;;;;5094026;28;20230;-71
2022/05/04 11:04:22;;;;;;;4.10;3.07;;;23.10;58.20;23.60;96703.00;;;;5110683;28;20194;-71
2022/05/04 11:06:57;;;;;;;3.27;2.97;;;22.80;58.70;23.70;96703.00;;;;5078522;28;20269;-71
2022/05/04 11:09:31;;;;;;;6.70;2.83;;;22.60;58.60;23.00;96696.00;;;;5102770;28;20201;-72
2022/05/04 11:12:03;;;;;;;6.03;2.20;;;22.40;57.50;23.20;96692.00;;;;5109801;28;20221;-72
2022/05/04 11:14:33;;;;;;;5.70;3.33;;;22.20;58.40;23.40;96699.00;;;;5111117;28;20194;-71
2022/05/04 11:17:09;;;;;;;5.53;3.23;;;22.10;58.90;23.30;96690.00;;;;5111185;28;20195;-71
2022/05/04 11:19:44;;;;;;;4.47;3.70;;;22.00;59.00;23.70;96676.00;;;;5096437;28;20209;-71
2022/05/04 11:22:14;;;;;;;2.83;2.60;;;22.00;59.30;23.90;96685.00;;;;5104110;28;20237;-71
2022/05/04 11:25:00;;;;;;;6.13;4.00;;;22.10;59.80;23.70;96687.00;;;;5100193;28;20195;-71
2022/05/04 11:27:29;;;;;;;3.37;2.40;;;22.10;60.40;23.10;96685.00;;;;5109005;28;20208;-72
2022/05/04 11:29:59;;;;;;;2.67;2.47;;;22.10;61.80;22.90;96686.00;;;;5110658;28;20205;-72
2022/05/04 11:32:32;;;;;;;2.97;2.00;;;21.90;62.80;22.70;96688.00;;;;5101713;28;20314;-73
2022/05/04 11:35:01;;;;;;;2.50;2.10;;;21.80;63.60;22.60;96686.00;;;;5104028;28;20190;-73
2022/05/04 11:37:32;;;;;;;2.47;2.00;;;21.00;63.70;22.50;96679.00;;;;5110591;28;20205;-73
2022/05/04 11:40:15;;;;;;;2.40;2.20;;;21.50;64.40;22.40;96686.00;;;;5110487;28;20248;-73
2022/05/04 11:42:45;;;;;;;2.60;2.40;;;21.40;64.60;22.20;96691.00;;;;5110729;28;20301;-73
2022/05/04 11:45:14;;;;;;;3.27;2.23;;;21.20;65.20;22.30;96685.00;;;;5110220;28;20218;-73
2022/05/04 11:47:44;;;;;;;2.20;2.03;;;21.10;66.30;22.20;96698.00;;;;5110251;28;20202;-73
2022/05/04 11:50:13;;;;;;;2.30;2.10;;;21.10;67.20;22.20;96703.00;;;;5110379;28;20202;-73